createdAt,value
2023-01-19T00:00:33.111Z,99.99
2023-01-19T00:01:22.997Z,99.99
2023-01-19T00:02:12.961Z,99.99
2023-01-19T00:03:02.982Z,99.99
2023-01-19T00:03:52.933Z,99.99
2023-01-19T00:04:43.087Z,99.99
2023-01-19T00:05:32.933Z,99.99
2023-01-19T00:06:23.052Z,99.99
2023-01-19T00:07:12.902Z,99.99
2023-01-19T00:08:03.249Z,99.99
2023-01-19T00:08:52.877Z,99.99
2023-01-19T00:09:42.879Z,99.99
2023-01-19T00:10:32.892Z,99.99
2023-01-19T00:11:22.896Z,99.99
2023-01-19T00:12:12.851Z,99.99
2023-01-19T00:13:03.103Z,99.99
2023-01-19T00:13:52.822Z,99.99
2023-01-19T00:14:42.831Z,99.99
2023-01-19T00:15:32.841Z,99.99
2023-01-19T00:16:23.011Z,99.99
2023-01-19T00:17:12.798Z,99.99
2023-01-19T00:18:02.802Z,99.99
2023-01-19T00:18:52.797Z,99.99
2023-01-19T00:19:42.764Z,99.99
2023-01-19T00:20:32.876Z,99.99
2023-01-19T00:21:22.773Z,99.99
2023-01-19T00:22:13.107Z,99.99
2023-01-19T00:23:03.039Z,99.99
2023-01-19T00:23:52.934Z,99.99
2023-01-19T00:24:42.709Z,99.99
2023-01-19T00:25:32.707Z,99.99
2023-01-19T00:26:22.723Z,99.99
2023-01-19T00:27:12.697Z,99.99
2023-01-19T00:28:02.673Z,99.99
2023-01-19T00:28:52.688Z,99.99
2023-01-19T00:29:42.665Z,99.99
2023-01-19T00:30:32.644Z,99.99
2023-01-19T00:31:22.720Z,99.99
2023-01-19T00:32:12.635Z,99.99
2023-01-19T00:33:03.199Z,99.99
2023-01-19T00:33:52.827Z,99.99
2023-01-19T00:34:42.671Z,99.99
2023-01-19T00:35:32.598Z,99.99
2023-01-19T00:36:22.603Z,99.99
2023-01-19T00:37:12.605Z,99.99
2023-01-19T00:38:02.575Z,99.99
2023-01-19T00:38:52.568Z,99.99
2023-01-19T00:39:42.554Z,99.99
2023-01-19T00:40:32.530Z,99.99
2023-01-19T00:41:22.534Z,99.99
2023-01-19T00:42:12.539Z,99.99
2023-01-19T00:43:02.850Z,99.99
2023-01-19T00:43:52.504Z,99.99
2023-01-19T00:44:42.492Z,99.99
2023-01-19T00:45:32.562Z,99.99
2023-01-19T00:46:22.513Z,99.99
2023-01-19T00:47:12.484Z,99.99
2023-01-19T00:48:02.460Z,99.99
2023-01-19T00:48:52.442Z,99.99
2023-01-19T00:49:42.451Z,99.99
2023-01-19T00:50:32.455Z,99.99
2023-01-19T00:51:22.411Z,99.99
2023-01-19T00:52:12.402Z,99.99
2023-01-19T00:53:02.911Z,99.99
2023-01-19T00:53:52.386Z,99.99
2023-01-19T00:54:42.381Z,99.99
2023-01-19T00:55:32.400Z,99.99
2023-01-19T00:56:22.379Z,99.99
2023-01-19T00:57:12.367Z,99.99
2023-01-19T00:58:02.352Z,99.99
2023-01-19T00:58:52.339Z,99.99
2023-01-19T00:59:42.327Z,99.99
2023-01-19T01:00:32.344Z,99.99
2023-01-19T01:01:22.509Z,99.99
2023-01-19T01:02:13.555Z,99.99
2023-01-19T01:03:02.838Z,99.99
2023-01-19T01:03:52.305Z,99.99
2023-01-19T01:04:42.307Z,99.99
2023-01-19T01:05:32.269Z,99.99
2023-01-19T01:06:22.259Z,99.99
2023-01-19T01:07:12.247Z,99.99
2023-01-19T01:08:02.239Z,99.99
2023-01-19T01:08:52.261Z,99.99
2023-01-19T01:09:42.227Z,99.99
2023-01-19T01:10:32.217Z,99.99
2023-01-19T01:11:22.205Z,99.99
2023-01-19T01:12:12.187Z,99.99
2023-01-19T01:13:20.355Z,99.99
2023-01-19T01:13:53.184Z,99.99
2023-01-19T01:14:42.172Z,99.99
2023-01-19T01:15:32.145Z,99.99
2023-01-19T01:16:22.216Z,99.99
2023-01-19T01:17:12.133Z,99.99
2023-01-19T01:18:02.145Z,99.99
2023-01-19T01:18:52.130Z,99.99
2023-01-19T01:19:42.134Z,99.99
2023-01-19T01:20:32.102Z,99.99
2023-01-19T01:21:22.112Z,99.99
2023-01-19T01:22:12.095Z,99.99
2023-01-19T01:23:02.530Z,99.99
2023-01-19T01:23:52.071Z,99.99
2023-01-19T01:24:42.075Z,99.99
2023-01-19T01:25:32.032Z,99.99
2023-01-19T01:26:22.045Z,99.99
2023-01-19T01:27:12.055Z,99.99
2023-01-19T01:28:02.006Z,99.99
2023-01-19T01:28:52.008Z,99.99
2023-01-19T01:29:42.008Z,99.99
2023-01-19T01:30:31.983Z,99.99
2023-01-19T01:31:22.044Z,99.99
2023-01-19T01:32:11.963Z,99.99
2023-01-19T01:33:02.435Z,99.99
2023-01-19T01:33:51.961Z,99.99
2023-01-19T01:34:41.940Z,99.99
2023-01-19T01:35:31.943Z,99.99
2023-01-19T01:36:21.952Z,99.99
2023-01-19T01:37:11.909Z,99.99
2023-01-19T01:38:01.948Z,99.99
2023-01-19T01:38:51.902Z,99.99
2023-01-19T01:39:41.890Z,99.99
2023-01-19T01:40:31.883Z,99.99
2023-01-19T01:41:22.052Z,99.99
2023-01-19T01:42:11.889Z,99.99
2023-01-19T01:43:02.286Z,99.99
2023-01-19T01:43:51.842Z,99.99
2023-01-19T01:44:41.850Z,99.99
2023-01-19T01:45:31.920Z,99.99
2023-01-19T01:46:21.847Z,99.99
2023-01-19T01:47:11.808Z,99.99
2023-01-19T01:48:01.806Z,99.99
2023-01-19T01:48:51.805Z,99.99
2023-01-19T01:49:41.800Z,99.99
2023-01-19T01:50:31.778Z,99.99
2023-01-19T01:51:21.799Z,99.99
2023-01-19T01:52:11.749Z,99.99
2023-01-19T01:53:06.583Z,99.99
2023-01-19T01:53:52.761Z,99.99
2023-01-19T01:54:41.738Z,99.99
2023-01-19T01:55:31.782Z,99.99
2023-01-19T01:56:21.732Z,99.99
2023-01-19T01:57:11.774Z,99.99
2023-01-19T01:58:01.697Z,99.99
2023-01-19T01:58:51.722Z,99.99
2023-01-19T01:59:41.681Z,99.99
2023-01-19T02:00:31.664Z,99.99
2023-01-19T02:01:21.729Z,99.99
2023-01-19T02:02:11.644Z,99.99
2023-01-19T02:03:02.111Z,99.99
2023-01-19T02:03:51.647Z,99.99
2023-01-19T02:04:41.623Z,99.99
2023-01-19T02:05:31.621Z,99.99
2023-01-19T02:06:21.618Z,99.99
2023-01-19T02:07:11.603Z,99.99
2023-01-19T02:08:01.607Z,99.99
2023-01-19T02:08:51.593Z,99.99
2023-01-19T02:09:41.574Z,99.99
2023-01-19T02:10:31.551Z,99.99
2023-01-19T02:11:21.553Z,99.99
2023-01-19T02:12:11.543Z,99.99
2023-01-19T02:13:01.937Z,99.99
2023-01-19T02:13:51.552Z,99.99
2023-01-19T02:14:41.529Z,99.99
2023-01-19T02:15:31.508Z,99.99
2023-01-19T02:16:21.536Z,99.99
2023-01-19T02:17:11.494Z,99.99
2023-01-19T02:18:01.474Z,99.99
2023-01-19T02:18:51.465Z,99.99
2023-01-19T02:19:41.468Z,99.99
2023-01-19T02:20:31.473Z,99.99
2023-01-19T02:21:21.430Z,99.99
2023-01-19T02:22:11.455Z,99.99
2023-01-19T02:23:01.950Z,99.99
2023-01-19T02:23:51.427Z,99.99
2023-01-19T02:24:41.388Z,99.99
2023-01-19T02:25:31.387Z,99.99
2023-01-19T02:26:21.389Z,99.99
2023-01-19T02:27:11.417Z,99.99
2023-01-19T02:28:01.357Z,99.99
2023-01-19T02:28:51.358Z,99.99
2023-01-19T02:29:41.359Z,99.99
2023-01-19T02:30:31.371Z,99.99
2023-01-19T02:31:21.344Z,99.99
2023-01-19T02:32:11.347Z,99.99
2023-01-19T02:33:01.787Z,99.99
2023-01-19T02:33:51.314Z,99.99
2023-01-19T02:34:41.310Z,99.99
2023-01-19T02:35:31.296Z,99.99
2023-01-19T02:36:21.291Z,99.99
2023-01-19T02:37:11.287Z,99.99
2023-01-19T02:38:01.257Z,99.99
2023-01-19T02:38:51.258Z,99.99
2023-01-19T02:39:41.247Z,99.99
2023-01-19T02:40:31.247Z,99.99
2023-01-19T02:41:21.264Z,99.99
2023-01-19T02:42:11.227Z,99.99
2023-01-19T02:43:01.686Z,99.99
2023-01-19T02:43:51.205Z,99.99
2023-01-19T02:44:41.174Z,99.99
2023-01-19T02:45:31.195Z,99.99
2023-01-19T02:46:21.203Z,99.99
2023-01-19T02:47:11.152Z,99.99
2023-01-19T02:48:01.151Z,99.99
2023-01-19T02:48:51.152Z,99.99
2023-01-19T02:49:41.122Z,99.99
2023-01-19T02:50:32.098Z,99.99
2023-01-19T02:51:21.119Z,99.99
2023-01-19T02:52:11.092Z,99.99
2023-01-19T02:53:01.442Z,99.99
2023-01-19T02:53:51.082Z,99.99
2023-01-19T02:54:41.067Z,99.99
2023-01-19T02:55:31.071Z,99.99
2023-01-19T02:56:21.085Z,99.99
2023-01-19T02:57:11.051Z,99.99
2023-01-19T02:58:01.042Z,99.99
2023-01-19T02:58:51.041Z,99.99
2023-01-19T02:59:41.038Z,99.99
2023-01-19T03:00:31.025Z,99.99
2023-01-19T03:01:21.058Z,99.99
2023-01-19T03:02:11.136Z,99.99
2023-01-19T03:03:01.414Z,99.99
2023-01-19T03:03:50.998Z,99.99
2023-01-19T03:04:40.958Z,99.99
2023-01-19T03:05:30.972Z,99.99
2023-01-19T03:06:20.958Z,99.99
2023-01-19T03:07:10.948Z,99.99
2023-01-19T03:08:00.938Z,99.99
2023-01-19T03:08:50.920Z,99.99
2023-01-19T03:09:40.918Z,99.99
2023-01-19T03:10:30.926Z,99.99
2023-01-19T03:11:20.896Z,99.99
2023-01-19T03:12:10.896Z,99.99
2023-01-19T03:13:01.152Z,99.99
2023-01-19T03:13:50.885Z,99.99
2023-01-19T03:14:40.853Z,99.99
2023-01-19T03:15:30.894Z,99.99
2023-01-19T03:16:21.883Z,99.99
2023-01-19T03:17:10.825Z,99.99
2023-01-19T03:18:00.824Z,99.99
2023-01-19T03:18:50.840Z,99.99
2023-01-19T03:19:40.805Z,99.99
2023-01-19T03:20:30.813Z,99.99
2023-01-19T03:21:20.795Z,99.99
2023-01-19T03:22:10.784Z,99.99
2023-01-19T03:23:01.133Z,99.99
2023-01-19T03:23:50.767Z,99.99
2023-01-19T03:24:40.762Z,99.99
2023-01-19T03:25:30.774Z,99.99
2023-01-19T03:26:20.731Z,99.99
2023-01-19T03:27:10.756Z,99.99
2023-01-19T03:28:00.702Z,99.99
2023-01-19T03:28:50.713Z,99.99
2023-01-19T03:29:40.701Z,99.99
2023-01-19T03:30:30.710Z,99.99
2023-01-19T03:31:20.682Z,99.99
2023-01-19T03:32:10.682Z,99.99
2023-01-19T03:33:01.123Z,99.99
2023-01-19T03:33:50.658Z,99.99
2023-01-19T03:34:40.645Z,99.99
2023-01-19T03:35:30.639Z,99.99
2023-01-19T03:36:20.613Z,99.99
2023-01-19T03:37:10.600Z,99.99
2023-01-19T03:38:00.608Z,99.99
2023-01-19T03:38:50.585Z,99.99
2023-01-19T03:39:40.632Z,99.99
2023-01-19T03:40:30.587Z,99.99
2023-01-19T03:41:20.550Z,99.99
2023-01-19T03:42:10.558Z,99.99
2023-01-19T03:43:00.894Z,99.99
2023-01-19T03:43:50.562Z,99.99
2023-01-19T03:44:40.539Z,99.99
2023-01-19T03:45:30.531Z,99.99
2023-01-19T03:46:20.557Z,99.99
2023-01-19T03:47:10.519Z,99.99
2023-01-19T03:48:00.493Z,99.99
2023-01-19T03:48:50.477Z,99.99
2023-01-19T03:49:40.470Z,99.99
2023-01-19T03:50:30.480Z,99.99
2023-01-19T03:51:20.458Z,99.99
2023-01-19T03:52:10.466Z,99.99
2023-01-19T03:53:00.826Z,99.99
2023-01-19T03:53:50.423Z,99.99
2023-01-19T03:54:40.423Z,99.99
2023-01-19T03:55:30.408Z,99.99
2023-01-19T03:56:20.386Z,99.99
2023-01-19T03:57:10.406Z,99.99
2023-01-19T03:58:00.405Z,99.99
2023-01-19T03:58:50.401Z,99.99
2023-01-19T03:59:40.360Z,99.99
2023-01-19T04:00:30.343Z,99.99
2023-01-19T04:01:20.544Z,99.99
2023-01-19T04:02:10.403Z,99.99
2023-01-19T04:03:00.761Z,99.99
2023-01-19T04:03:50.327Z,99.99
2023-01-19T04:04:40.315Z,99.99
2023-01-19T04:05:30.299Z,99.99
2023-01-19T04:06:20.294Z,99.99
2023-01-19T04:07:10.303Z,99.99
2023-01-19T04:08:00.262Z,99.99
2023-01-19T04:08:50.306Z,99.99
2023-01-19T04:09:40.254Z,99.99
2023-01-19T04:10:30.245Z,99.99
2023-01-19T04:11:20.261Z,99.99
2023-01-19T04:12:10.213Z,99.99
2023-01-19T04:13:00.775Z,99.99
2023-01-19T04:13:50.220Z,99.99
2023-01-19T04:14:40.209Z,99.99
2023-01-19T04:15:30.182Z,99.99
2023-01-19T04:16:20.312Z,99.99
2023-01-19T04:17:10.176Z,99.99
2023-01-19T04:18:00.193Z,99.99
2023-01-19T04:18:50.185Z,99.99
2023-01-19T04:19:40.130Z,99.99
2023-01-19T04:20:30.177Z,99.99
2023-01-19T04:21:20.144Z,99.99
2023-01-19T04:22:10.140Z,99.99
2023-01-19T04:23:00.476Z,99.99
2023-01-19T04:23:50.103Z,99.99
2023-01-19T04:24:40.088Z,99.99
2023-01-19T04:25:30.109Z,99.99
2023-01-19T04:26:20.080Z,99.99
2023-01-19T04:27:10.057Z,99.99
2023-01-19T04:28:00.051Z,99.99
2023-01-19T04:28:50.035Z,99.99
2023-01-19T04:29:40.037Z,99.99
2023-01-19T04:30:30.041Z,99.99
2023-01-19T04:31:20.155Z,99.99
2023-01-19T04:32:09.998Z,99.99
2023-01-19T04:33:00.501Z,99.99
2023-01-19T04:33:50.004Z,99.99
2023-01-19T04:34:39.969Z,99.99
2023-01-19T04:35:29.988Z,99.99
2023-01-19T04:36:19.976Z,99.99
2023-01-19T04:37:09.977Z,99.99
2023-01-19T04:37:59.934Z,99.99
2023-01-19T04:38:49.952Z,99.99
2023-01-19T04:39:39.915Z,99.99
2023-01-19T04:40:29.915Z,99.99
2023-01-19T04:41:19.924Z,99.99
2023-01-19T04:42:09.920Z,99.99
2023-01-19T04:43:00.270Z,99.99
2023-01-19T04:43:49.882Z,99.99
2023-01-19T04:44:39.890Z,99.99
2023-01-19T04:45:29.856Z,99.99
2023-01-19T04:46:19.882Z,99.99
2023-01-19T04:47:09.874Z,99.99
2023-01-19T04:47:59.832Z,99.99
2023-01-19T04:48:49.868Z,99.99
2023-01-19T04:49:39.804Z,99.99
2023-01-19T04:50:29.823Z,99.99
2023-01-19T04:51:19.792Z,99.99
2023-01-19T04:52:09.805Z,99.99
2023-01-19T04:53:00.094Z,99.99
2023-01-19T04:53:49.795Z,99.99
2023-01-19T04:54:39.809Z,99.99
2023-01-19T04:55:29.749Z,99.99
2023-01-19T04:56:19.745Z,99.99
2023-01-19T04:57:09.748Z,99.99
2023-01-19T04:57:59.721Z,99.99
2023-01-19T04:58:49.725Z,99.99
2023-01-19T04:59:39.696Z,99.99
2023-01-19T05:00:29.705Z,99.99
2023-01-19T05:01:19.713Z,99.99
2023-01-19T05:02:09.760Z,99.99
2023-01-19T05:03:00.245Z,99.99
2023-01-19T05:03:49.675Z,99.99
2023-01-19T05:04:39.649Z,99.99
2023-01-19T05:05:29.653Z,99.99
2023-01-19T05:06:19.625Z,99.99
2023-01-19T05:07:09.637Z,99.99
2023-01-19T05:07:59.655Z,99.99
2023-01-19T05:08:49.619Z,99.99
2023-01-19T05:09:39.587Z,99.99
2023-01-19T05:10:29.594Z,99.99
2023-01-19T05:11:19.567Z,99.99
2023-01-19T05:12:09.564Z,99.99
2023-01-19T05:12:59.955Z,99.99
2023-01-19T05:13:51.013Z,99.99
2023-01-19T05:14:39.553Z,99.99
2023-01-19T05:15:29.541Z,99.99
2023-01-19T05:16:19.571Z,99.99
2023-01-19T05:17:09.526Z,99.99
2023-01-19T05:17:59.521Z,99.99
2023-01-19T05:18:49.498Z,99.99
2023-01-19T05:19:39.491Z,99.99
2023-01-19T05:20:29.481Z,99.99
2023-01-19T05:21:19.462Z,99.99
2023-01-19T05:22:09.491Z,99.99
2023-01-19T05:22:59.833Z,99.99
2023-01-19T05:23:49.466Z,99.99
2023-01-19T05:24:39.452Z,99.99
2023-01-19T05:25:29.445Z,99.99
2023-01-19T05:26:19.428Z,99.99
2023-01-19T05:27:09.424Z,99.99
2023-01-19T05:27:59.415Z,99.99
2023-01-19T05:28:49.420Z,99.99
2023-01-19T05:29:39.396Z,99.99
2023-01-19T05:30:29.376Z,99.99
2023-01-19T05:31:19.747Z,99.99
2023-01-19T05:32:09.367Z,99.99
2023-01-19T05:32:59.705Z,99.99
2023-01-19T05:33:49.353Z,99.99
2023-01-19T05:34:39.356Z,99.99
2023-01-19T05:35:35.761Z,99.99
2023-01-19T05:36:20.343Z,99.99
2023-01-19T05:37:09.303Z,99.99
2023-01-19T05:37:59.300Z,99.99
2023-01-19T05:38:49.311Z,99.99
2023-01-19T05:39:39.283Z,99.99
2023-01-19T05:40:29.256Z,99.99
2023-01-19T05:41:19.270Z,99.99
2023-01-19T05:42:09.253Z,99.99
2023-01-19T05:42:59.653Z,99.99
2023-01-19T05:43:49.229Z,99.99
2023-01-19T05:44:39.247Z,99.99
2023-01-19T05:45:29.221Z,99.99
2023-01-19T05:46:19.228Z,99.99
2023-01-19T05:47:09.192Z,99.99
2023-01-19T05:47:59.234Z,99.99
2023-01-19T05:48:49.189Z,99.99
2023-01-19T05:49:39.227Z,99.99
2023-01-19T05:50:29.144Z,99.99
2023-01-19T05:51:19.151Z,99.99
2023-01-19T05:52:09.146Z,99.99
2023-01-19T05:52:59.496Z,99.99
2023-01-19T05:53:49.118Z,99.99
2023-01-19T05:54:39.106Z,99.99
2023-01-19T05:55:29.137Z,99.99
2023-01-19T05:56:19.081Z,99.99
2023-01-19T05:57:09.077Z,99.99
2023-01-19T05:57:59.090Z,99.99
2023-01-19T05:58:49.055Z,99.99
2023-01-19T05:59:39.053Z,99.99
2023-01-19T06:00:29.076Z,99.99
2023-01-19T06:01:19.095Z,99.99
2023-01-19T06:02:09.086Z,99.99
2023-01-19T06:02:59.569Z,99.99
2023-01-19T06:03:49.025Z,99.99
2023-01-19T06:04:38.995Z,99.99
2023-01-19T06:05:28.997Z,99.99
2023-01-19T06:06:18.983Z,99.99
2023-01-19T06:07:08.960Z,99.99
2023-01-19T06:07:58.982Z,99.99
2023-01-19T06:08:48.961Z,99.99
2023-01-19T06:09:38.958Z,99.99
2023-01-19T06:10:28.936Z,99.99
2023-01-19T06:11:18.964Z,99.99
2023-01-19T06:12:08.920Z,99.99
2023-01-19T06:12:59.371Z,99.99
2023-01-19T06:13:48.894Z,99.99
2023-01-19T06:14:38.912Z,99.99
2023-01-19T06:15:28.899Z,99.99
2023-01-19T06:16:18.942Z,99.99
2023-01-19T06:17:08.871Z,99.99
2023-01-19T06:17:58.859Z,99.99
2023-01-19T06:18:48.857Z,99.99
2023-01-19T06:19:38.840Z,99.99
2023-01-19T06:20:28.857Z,99.99
2023-01-19T06:21:18.820Z,99.99
2023-01-19T06:22:08.831Z,99.99
2023-01-19T06:22:59.368Z,99.99
2023-01-19T06:23:48.789Z,99.99
2023-01-19T06:24:38.796Z,99.99
2023-01-19T06:25:28.803Z,99.99
2023-01-19T06:26:18.769Z,99.99
2023-01-19T06:27:08.762Z,99.99
2023-01-19T06:27:58.780Z,99.99
2023-01-19T06:28:48.750Z,99.99
2023-01-19T06:29:38.732Z,99.99
2023-01-19T06:30:28.732Z,99.99
2023-01-19T06:31:18.748Z,99.99
2023-01-19T06:32:08.697Z,99.99
2023-01-19T06:32:58.985Z,99.99
2023-01-19T06:33:48.758Z,99.99
2023-01-19T06:34:38.678Z,99.99
2023-01-19T06:35:28.667Z,99.99
2023-01-19T06:36:18.665Z,99.99
2023-01-19T06:37:08.659Z,99.99
2023-01-19T06:37:58.679Z,99.99
2023-01-19T06:38:48.631Z,99.99
2023-01-19T06:39:38.634Z,99.99
2023-01-19T06:40:28.637Z,99.99
2023-01-19T06:41:18.594Z,99.99
2023-01-19T06:42:08.603Z,99.99
2023-01-19T06:42:58.897Z,99.99
2023-01-19T06:43:48.585Z,99.99
2023-01-19T06:44:38.564Z,99.99
2023-01-19T06:45:28.596Z,99.99
2023-01-19T06:46:18.550Z,99.99
2023-01-19T06:47:15.568Z,99.99
2023-01-19T06:47:59.531Z,99.99
2023-01-19T06:48:48.565Z,99.99
2023-01-19T06:49:38.522Z,99.99
2023-01-19T06:50:28.514Z,99.99
2023-01-19T06:51:18.499Z,99.99
2023-01-19T06:52:08.488Z,99.99
2023-01-19T06:52:58.986Z,99.99
2023-01-19T06:53:48.473Z,99.99
2023-01-19T06:54:38.506Z,99.99
2023-01-19T06:55:28.454Z,99.99
2023-01-19T06:56:18.447Z,99.99
2023-01-19T06:57:08.431Z,99.99
2023-01-19T06:57:58.442Z,99.99
2023-01-19T06:58:48.438Z,99.99
2023-01-19T06:59:38.425Z,99.99
2023-01-19T07:00:28.420Z,99.99
2023-01-19T07:01:18.465Z,99.99
2023-01-19T07:02:27.426Z,99.99
2023-01-19T07:02:59.763Z,99.99
2023-01-19T07:03:48.371Z,99.99
2023-01-19T07:04:38.349Z,99.99
2023-01-19T07:05:28.374Z,99.99
2023-01-19T07:06:18.342Z,99.99
2023-01-19T07:07:08.329Z,99.99
2023-01-19T07:07:58.322Z,99.99
2023-01-19T07:08:48.319Z,99.99
2023-01-19T07:09:38.310Z,99.99
2023-01-19T07:11:22.212Z,99.99
2023-01-19T07:11:24.755Z,99.99
2023-01-19T07:12:09.321Z,99.99
2023-01-19T07:12:58.913Z,99.99
2023-01-19T07:13:48.264Z,99.99
2023-01-19T07:14:38.255Z,99.99
2023-01-19T07:15:28.260Z,99.99
2023-01-19T07:16:18.267Z,99.99
2023-01-19T07:17:08.245Z,99.99
2023-01-19T07:17:58.210Z,99.99
2023-01-19T07:18:48.217Z,99.99
2023-01-19T07:19:38.197Z,99.99
2023-01-19T07:20:28.220Z,99.99
2023-01-19T07:21:18.264Z,99.99
2023-01-19T07:22:08.194Z,99.99
2023-01-19T07:22:58.877Z,99.99
2023-01-19T07:23:48.151Z,99.99
2023-01-19T07:24:38.344Z,99.99
2023-01-19T07:25:28.147Z,99.99
2023-01-19T07:26:18.143Z,99.99
2023-01-19T07:27:08.133Z,99.99
2023-01-19T07:27:58.124Z,99.99
2023-01-19T07:28:48.350Z,99.99
2023-01-19T07:29:38.093Z,99.99
2023-01-19T07:30:28.197Z,99.99
2023-01-19T07:31:18.184Z,99.99
2023-01-19T07:32:08.063Z,99.99
2023-01-19T07:32:58.656Z,99.99
2023-01-19T07:33:48.049Z,99.99
2023-01-19T07:34:38.032Z,99.99
2023-01-19T07:35:28.050Z,99.99
2023-01-19T07:36:18.035Z,99.99
2023-01-19T07:37:08.001Z,99.99
2023-01-19T07:37:57.993Z,99.99
2023-01-19T07:38:48.027Z,99.99
2023-01-19T07:39:38.039Z,99.99
2023-01-19T07:40:28.018Z,99.99
2023-01-19T07:41:18.003Z,99.99
2023-01-19T07:42:07.954Z,99.99
2023-01-19T07:42:58.218Z,99.99
2023-01-19T07:43:47.950Z,99.99
2023-01-19T07:44:37.912Z,99.99
2023-01-19T07:45:28.100Z,99.99
2023-01-19T07:46:17.928Z,99.99
2023-01-19T07:47:07.899Z,99.99
2023-01-19T07:47:57.903Z,99.99
2023-01-19T07:48:47.881Z,99.99
2023-01-19T07:49:37.876Z,99.99
2023-01-19T07:50:27.871Z,99.99
2023-01-19T07:51:17.868Z,99.99
2023-01-19T07:52:07.839Z,99.99
2023-01-19T07:52:58.055Z,99.99
2023-01-19T07:53:47.817Z,99.99
2023-01-19T07:54:37.807Z,99.99
2023-01-19T07:55:27.840Z,99.99
2023-01-19T07:56:17.815Z,99.99
2023-01-19T07:57:07.800Z,99.99
2023-01-19T07:57:57.806Z,99.99
2023-01-19T07:58:47.783Z,99.99
2023-01-19T07:59:37.758Z,99.99
2023-01-19T08:00:27.743Z,99.99
2023-01-19T08:01:17.837Z,99.99
2023-01-19T08:02:09.312Z,99.99
2023-01-19T08:02:57.893Z,99.99
2023-01-19T08:03:47.751Z,99.99
2023-01-19T08:04:37.761Z,99.99
2023-01-19T08:05:27.705Z,99.99
2023-01-19T08:06:17.714Z,99.99
2023-01-19T08:07:07.690Z,99.99
2023-01-19T08:07:57.692Z,99.99
2023-01-19T08:08:47.683Z,99.99
2023-01-19T08:09:37.662Z,99.99
2023-01-19T08:10:27.644Z,99.99
2023-01-19T08:11:17.666Z,99.99
2023-01-19T08:12:07.663Z,99.99
2023-01-19T08:12:57.700Z,99.99
2023-01-19T08:13:47.622Z,99.99
2023-01-19T08:14:37.604Z,99.99
2023-01-19T08:15:27.663Z,99.99
2023-01-19T08:16:17.590Z,99.99
2023-01-19T08:17:07.582Z,99.99
2023-01-19T08:17:57.583Z,99.99
2023-01-19T08:18:47.563Z,99.99
2023-01-19T08:19:39.038Z,99.99
2023-01-19T08:20:27.563Z,99.99
2023-01-19T08:21:17.529Z,99.99
2023-01-19T08:22:07.534Z,99.99
2023-01-19T08:22:57.883Z,99.99
2023-01-19T08:23:47.539Z,99.99
2023-01-19T08:24:37.494Z,99.99
2023-01-19T08:25:27.484Z,99.99
2023-01-19T08:26:17.468Z,99.99
2023-01-19T08:27:07.458Z,99.99
2023-01-19T08:27:57.526Z,99.99
2023-01-19T08:28:47.458Z,99.99
2023-01-19T08:29:37.471Z,99.99
2023-01-19T08:30:27.446Z,99.99
2023-01-19T08:31:21.726Z,99.99
2023-01-19T08:32:08.527Z,99.99
2023-01-19T08:32:57.422Z,99.99
2023-01-19T08:33:47.418Z,99.99
2023-01-19T08:34:37.418Z,99.99
2023-01-19T08:35:27.847Z,99.99
2023-01-19T08:36:17.369Z,99.99
2023-01-19T08:37:07.356Z,99.99
2023-01-19T08:37:57.357Z,99.99
2023-01-19T08:38:47.432Z,99.99
2023-01-19T08:39:37.355Z,99.99
2023-01-19T08:40:27.358Z,99.99
2023-01-19T08:41:17.329Z,99.99
2023-01-19T08:42:07.327Z,99.99
2023-01-19T08:42:57.313Z,99.99
2023-01-19T08:43:47.274Z,99.99
2023-01-19T08:44:41.434Z,99.99
2023-01-19T08:45:28.313Z,99.99
2023-01-19T08:46:17.296Z,99.99
2023-01-19T08:47:07.316Z,99.99
2023-01-19T08:47:57.282Z,99.99
2023-01-19T08:48:47.247Z,99.99
2023-01-19T08:49:37.235Z,99.99
2023-01-19T08:50:27.223Z,99.99
2023-01-19T08:51:17.219Z,99.99
2023-01-19T08:52:07.188Z,99.99
2023-01-19T08:52:57.255Z,99.99
2023-01-19T08:53:47.202Z,99.99
2023-01-19T08:54:37.187Z,99.99
2023-01-19T08:55:27.162Z,99.99
2023-01-19T08:56:19.002Z,99.99
2023-01-19T08:57:07.174Z,99.99
2023-01-19T08:57:57.156Z,99.99
2023-01-19T08:58:53.665Z,99.99
2023-01-19T08:59:38.155Z,99.99
2023-01-19T09:00:27.153Z,99.99
2023-01-19T09:01:17.257Z,99.99
2023-01-19T09:02:07.132Z,99.99
2023-01-19T09:02:57.136Z,99.99
2023-01-19T09:03:47.131Z,99.99
2023-01-19T09:04:37.085Z,99.99
2023-01-19T09:05:27.064Z,99.99
2023-01-19T09:06:17.039Z,99.99
2023-01-19T09:07:07.159Z,99.99
2023-01-19T09:07:57.041Z,99.99
2023-01-19T09:08:47.028Z,99.99
2023-01-19T09:09:37.023Z,99.99
2023-01-19T09:10:27.001Z,99.99
2023-01-19T09:11:17.010Z,99.99
2023-01-19T09:12:06.994Z,99.99
2023-01-19T09:12:56.991Z,99.99
2023-01-19T09:13:46.998Z,99.99
2023-01-19T09:14:36.955Z,99.99
2023-01-19T09:15:26.958Z,99.99
2023-01-19T09:16:16.935Z,99.99
2023-01-19T09:17:06.917Z,99.99
2023-01-19T09:17:56.934Z,99.99
2023-01-19T09:18:46.925Z,99.99
2023-01-19T09:19:36.916Z,99.99
2023-01-19T09:20:26.888Z,99.99
2023-01-19T09:21:16.883Z,99.99
2023-01-19T09:22:06.877Z,99.99
2023-01-19T09:22:56.883Z,99.99
2023-01-19T09:23:46.875Z,99.99
2023-01-19T09:24:36.846Z,99.99
2023-01-19T09:25:26.835Z,99.99
2023-01-19T09:26:16.822Z,99.99
2023-01-19T09:27:06.856Z,99.99
2023-01-19T09:27:56.801Z,99.99
2023-01-19T09:28:46.804Z,99.99
2023-01-19T09:29:36.802Z,99.99
2023-01-19T09:30:26.793Z,99.99
2023-01-19T09:31:16.910Z,99.99
2023-01-19T09:32:06.759Z,99.99
2023-01-19T09:32:59.292Z,99.99
2023-01-19T09:33:46.764Z,99.99
2023-01-19T09:34:36.731Z,99.99
2023-01-19T09:35:26.746Z,99.99
2023-01-19T09:36:16.718Z,99.99
2023-01-19T09:37:06.700Z,99.99
2023-01-19T09:37:56.893Z,99.99
2023-01-19T09:38:46.703Z,99.99
2023-01-19T09:39:36.718Z,99.99
2023-01-19T09:40:26.683Z,99.99
2023-01-19T09:41:16.687Z,99.99
2023-01-19T09:42:06.657Z,99.99
2023-01-19T09:42:56.640Z,99.99
2023-01-19T09:43:46.629Z,99.99
2023-01-19T09:44:36.622Z,99.99
2023-01-19T09:45:26.652Z,99.99
2023-01-19T09:46:16.683Z,99.99
2023-01-19T09:47:06.607Z,99.99
2023-01-19T09:47:56.591Z,99.99
2023-01-19T09:48:46.584Z,99.99
2023-01-19T09:49:36.560Z,99.99
2023-01-19T09:50:26.568Z,99.99
2023-01-19T09:51:16.538Z,99.99
2023-01-19T09:52:06.571Z,99.99
2023-01-19T09:52:56.516Z,99.99
2023-01-19T09:53:46.521Z,99.99
2023-01-19T09:54:36.511Z,99.84
2023-01-19T09:55:26.529Z,99.84
2023-01-19T09:56:16.505Z,99.73
2023-01-19T09:57:06.486Z,99.69
2023-01-19T09:57:56.475Z,99.69
2023-01-19T09:58:46.468Z,99.58
2023-01-19T09:59:36.447Z,99.48
2023-01-19T10:00:26.478Z,99.37
2023-01-19T10:01:16.483Z,98.74
2023-01-19T10:02:06.447Z,98.74
2023-01-19T10:02:56.466Z,98.95
2023-01-19T10:03:46.426Z,99.11
2023-01-19T10:04:36.425Z,99.43
2023-01-19T10:05:26.419Z,99.54
2023-01-19T10:06:16.392Z,99.54
2023-01-19T10:07:06.388Z,99.64
2023-01-19T10:07:56.410Z,99.64
2023-01-19T10:08:46.363Z,99.33
2023-01-19T10:09:36.346Z,98.97
2023-01-19T10:10:26.386Z,98.86
2023-01-19T10:11:16.340Z,98.86
2023-01-19T10:12:06.371Z,98.65
2023-01-19T10:12:56.317Z,98.34
2023-01-19T10:13:46.312Z,98.02
2023-01-19T10:14:36.289Z,97.60
2023-01-19T10:15:26.315Z,97.71
2023-01-19T10:16:16.327Z,97.81
2023-01-19T10:17:06.379Z,97.81
2023-01-19T10:17:56.270Z,98.02
2023-01-19T10:18:46.264Z,98.19
2023-01-19T10:19:36.249Z,98.19
2023-01-19T10:20:26.247Z,98.08
2023-01-19T10:21:16.251Z,97.98
2023-01-19T10:22:06.250Z,97.98
2023-01-19T10:22:56.326Z,98.08
2023-01-19T10:23:46.260Z,98.19
2023-01-19T10:24:36.203Z,98.67
2023-01-19T10:25:26.218Z,98.98
2023-01-19T10:26:16.220Z,99.19
2023-01-19T10:27:06.160Z,99.19
2023-01-19T10:27:56.149Z,98.88
2023-01-19T10:28:46.170Z,98.56
2023-01-19T10:29:36.148Z,98.46
2023-01-19T10:30:26.138Z,98.35
2023-01-19T10:31:16.201Z,98.04
2023-01-19T10:32:06.144Z,97.93
2023-01-19T10:32:56.780Z,98.04
2023-01-19T10:33:46.174Z,98.21
2023-01-19T10:34:36.106Z,97.83
2023-01-19T10:35:26.115Z,97.09
2023-01-19T10:36:16.067Z,97.41
2023-01-19T10:37:06.104Z,98.04
2023-01-19T10:37:56.079Z,98.72
2023-01-19T10:38:46.038Z,99.04
2023-01-19T10:39:38.704Z,99.25
2023-01-19T10:40:33.138Z,98.83
2023-01-19T10:41:16.023Z,97.89
2023-01-19T10:42:06.011Z,98.31
2023-01-19T10:43:01.177Z,97.99
2023-01-19T10:43:46.504Z,97.36